Terminal Aerodrome Forecast
Issued by NWS

Home | Current Version | Previous Version | Text Only | Print | Product List | Glossary On
Versions: 1 2 3 4 5 6 7 8 9 10 11 12 13 14 15
072
FTUS43 KMPX 301733
TAFAXN
TAF
KAXN 301733Z 3018/0118 36008KT P6SM OVC005
      TEMPO 3018/3022 5SM -RASN SCT005 OVC008
     FM302200 34009KT 3SM -RASN BR OVC006
     FM010000 34009KT 5SM -SN BR OVC005
     FM010600 33012KT P6SM OVC010
     FM011400 33008KT P6SM OVC015=

USA.gov is the U.S. government's official web portal to all federal, state and local government web resources and services.